sensor_id;sensor_type;location;lat;lon;timestamp;P1;P2;P0
71858;PMS5003;59713;50.866;4.324;2024-02-04T00:00:43;13;10;
71858;PMS5003;59713;50.866;4.324;2024-02-04T00:01:43;15;12;
71858;PMS5003;59713;50.866;4.324;2024-02-04T00:02:43;15;12;
71858;PMS5003;59713;50.866;4.324;2024-02-04T00:03:43;15;12;
71858;PMS5003;59713;50.866;4.324;2024-02-04T00:04:43;12;10;
71858;PMS5003;59713;50.866;4.324;2024-02-04T00:05:43;12;10;
71858;PMS5003;59713;50.866;4.324;2024-02-04T00:06:43;12;10;
71858;PMS5003;59713;50.866;4.324;2024-02-04T00:07:43;11;8;
71858;PMS5003;59713;50.866;4.324;2024-02-04T00:08:43;11;8;
71858;PMS5003;59713;50.866;4.324;2024-02-04T00:08:43;11;8;
71858;PMS5003;59713;50.866;4.324;2024-02-04T00:09:43;11;8;
71858;PMS5003;59713;50.866;4.324;2024-02-04T00:10:43;11;9;
71858;PMS5003;59713;50.866;4.324;2024-02-04T00:11:43;11;9;
71858;PMS5003;59713;50.866;4.324;2024-02-04T00:12:43;11;9;
71858;PMS5003;59713;50.866;4.324;2024-02-04T00:13:43;13;9;
71858;PMS5003;59713;50.866;4.324;2024-02-04T00:14:43;13;9;
71858;PMS5003;59713;50.866;4.324;2024-02-04T00:15:43;13;9;
71858;PMS5003;59713;50.866;4.324;2024-02-04T00:16:43;9;7;
71858;PMS5003;59713;50.866;4.324;2024-02-04T00:17:43;9;7;
71858;PMS5003;59713;50.866;4.324;2024-02-04T00:18:43;9;7;
71858;PMS5003;59713;50.866;4.324;2024-02-04T00:18:43;9;7;
71858;PMS5003;59713;50.866;4.324;2024-02-04T00:19:43;12;9;
71858;PMS5003;59713;50.866;4.324;2024-02-04T00:20:43;12;9;
71858;PMS5003;59713;50.866;4.324;2024-02-04T00:21:43;12;9;
71858;PMS5003;59713;50.866;4.324;2024-02-04T00:22:43;10;8;
71858;PMS5003;59713;50.866;4.324;2024-02-04T00:23:43;10;8;
71858;PMS5003;59713;50.866;4.324;2024-02-04T00:24:43;10;8;
71858;PMS5003;59713;50.866;4.324;2024-02-04T00:25:43;9;9;
71858;PMS5003;59713;50.866;4.324;2024-02-04T00:26:43;9;9;
71858;PMS5003;59713;50.866;4.324;2024-02-04T00:27:43;9;9;
71858;PMS5003;59713;50.866;4.324;2024-02-04T00:27:43;9;9;
71858;PMS5003;59713;50.866;4.324;2024-02-04T00:28:43;11;7;
71858;PMS5003;59713;50.866;4.324;2024-02-04T00:29:43;11;7;
71858;PMS5003;59713;50.866;4.324;2024-02-04T00:30:43;11;7;
71858;PMS5003;59713;50.866;4.324;2024-02-04T00:31:43;9;9;
71858;PMS5003;59713;50.866;4.324;2024-02-04T00:32:43;9;9;
71858;PMS5003;59713;50.866;4.324;2024-02-04T00:33:43;9;9;
71858;PMS5003;59713;50.866;4.324;2024-02-04T00:34:43;8;8;
71858;PMS5003;59713;50.866;4.324;2024-02-04T00:35:43;8;8;
71858;PMS5003;59713;50.866;4.324;2024-02-04T00:36:43;8;8;
71858;PMS5003;59713;50.866;4.324;2024-02-04T00:36:43;8;8;
71858;PMS5003;59713;50.866;4.324;2024-02-04T00:37:43;11;8;
71858;PMS5003;59713;50.866;4.324;2024-02-04T00:38:43;11;8;
71858;PMS5003;59713;50.866;4.324;2024-02-04T00:39:43;11;8;
71858;PMS5003;59713;50.866;4.324;2024-02-04T00:40:43;10;7;
71858;PMS5003;59713;50.866;4.324;2024-02-04T00:41:43;10;7;
71858;PMS5003;59713;50.866;4.324;2024-02-04T00:42:43;10;7;
71858;PMS5003;59713;50.866;4.324;2024-02-04T00:43:43;8;8;
71858;PMS5003;59713;50.866;4.324;2024-02-04T00:44:43;8;8;
71858;PMS5003;59713;50.866;4.324;2024-02-04T00:45:43;8;8;
71858;PMS5003;59713;50.866;4.324;2024-02-04T00:45:43;8;8;
71858;PMS5003;59713;50.866;4.324;2024-02-04T00:46:43;6;5;
71858;PMS5003;59713;50.866;4.324;2024-02-04T00:47:43;6;5;
71858;PMS5003;59713;50.866;4.324;2024-02-04T00:48:43;6;5;
71858;PMS5003;59713;50.866;4.324;2024-02-04T00:49:43;7;7;
71858;PMS5003;59713;50.866;4.324;2024-02-04T00:50:43;7;7;
71858;PMS5003;59713;50.866;4.324;2024-02-04T00:51:43;7;7;
71858;PMS5003;59713;50.866;4.324;2024-02-04T00:52:45;10;6;
71858;PMS5003;59713;50.866;4.324;2024-02-04T00:53:43;10;6;
71858;PMS5003;59713;50.866;4.324;2024-02-04T00:54:43;10;6;
71858;PMS5003;59713;50.866;4.324;2024-02-04T00:54:43;10;6;
71858;PMS5003;59713;50.866;4.324;2024-02-04T00:55:43;9;7;
71858;PMS5003;59713;50.866;4.324;2024-02-04T00:56:43;9;7;
71858;PMS5003;59713;50.866;4.324;2024-02-04T00:57:43;9;7;
71858;PMS5003;59713;50.866;4.324;2024-02-04T00:58:43;8;6;
71858;PMS5003;59713;50.866;4.324;2024-02-04T00:59:43;8;6;
71858;PMS5003;59713;50.866;4.324;2024-02-04T01:00:43;8;6;
71858;PMS5003;59713;50.866;4.324;2024-02-04T01:01:43;6;6;
71858;PMS5003;59713;50.866;4.324;2024-02-04T01:02:43;6;6;
71858;PMS5003;59713;50.866;4.324;2024-02-04T01:03:43;6;6;
71858;PMS5003;59713;50.866;4.324;2024-02-04T01:03:43;6;6;
71858;PMS5003;59713;50.866;4.324;2024-02-04T01:04:43;8;5;
71858;PMS5003;59713;50.866;4.324;2024-02-04T01:05:43;8;5;
71858;PMS5003;59713;50.866;4.324;2024-02-04T01:06:43;8;5;
71858;PMS5003;59713;50.866;4.324;2024-02-04T01:07:43;8;6;
71858;PMS5003;59713;50.866;4.324;2024-02-04T01:08:43;8;6;
71858;PMS5003;59713;50.866;4.324;2024-02-04T01:09:43;8;6;
71858;PMS5003;59713;50.866;4.324;2024-02-04T01:10:43;6;5;
71858;PMS5003;59713;50.866;4.324;2024-02-04T01:11:43;6;5;
71858;PMS5003;59713;50.866;4.324;2024-02-04T01:12:43;6;5;
71858;PMS5003;59713;50.866;4.324;2024-02-04T01:12:43;6;5;
71858;PMS5003;59713;50.866;4.324;2024-02-04T01:13:43;7;5;
71858;PMS5003;59713;50.866;4.324;2024-02-04T01:14:43;7;5;
71858;PMS5003;59713;50.866;4.324;2024-02-04T01:15:43;7;5;
71858;PMS5003;59713;50.866;4.324;2024-02-04T01:16:43;4;4;
71858;PMS5003;59713;50.866;4.324;2024-02-04T01:17:43;4;4;
71858;PMS5003;59713;50.866;4.324;2024-02-04T01:18:43;4;4;
71858;PMS5003;59713;50.866;4.324;2024-02-04T01:19:43;10;6;
71858;PMS5003;59713;50.866;4.324;2024-02-04T01:20:43;10;6;
71858;PMS5003;59713;50.866;4.324;2024-02-04T01:21:43;10;6;
71858;PMS5003;59713;50.866;4.324;2024-02-04T01:22:43;7;4;
71858;PMS5003;59713;50.866;4.324;2024-02-04T01:22:43;7;4;
71858;PMS5003;59713;50.866;4.324;2024-02-04T01:23:43;7;4;
71858;PMS5003;59713;50.866;4.324;2024-02-04T01:24:43;7;4;
71858;PMS5003;59713;50.866;4.324;2024-02-04T01:25:43;7;6;
71858;PMS5003;59713;50.866;4.324;2024-02-04T01:26:43;7;6;
71858;PMS5003;59713;50.866;4.324;2024-02-04T01:27:43;7;6;
71858;PMS5003;59713;50.866;4.324;2024-02-04T01:28:43;6;6;
71858;PMS5003;59713;50.866;4.324;2024-02-04T01:29:43;6;6;
71858;PMS5003;59713;50.866;4.324;2024-02-04T01:30:43;6;6;
71858;PMS5003;59713;50.866;4.324;2024-02-04T01:31:43;8;6;
71858;PMS5003;59713;50.866;4.324;2024-02-04T01:31:43;8;6;
71858;PMS5003;59713;50.866;4.324;2024-02-04T01:32:44;8;6;
71858;PMS5003;59713;50.866;4.324;2024-02-04T01:33:43;8;6;
71858;PMS5003;59713;50.866;4.324;2024-02-04T01:34:43;5;5;
71858;PMS5003;59713;50.866;4.324;2024-02-04T01:35:43;5;5;
71858;PMS5003;59713;50.866;4.324;2024-02-04T01:36:43;5;5;
71858;PMS5003;59713;50.866;4.324;2024-02-04T01:37:43;9;7;
71858;PMS5003;59713;50.866;4.324;2024-02-04T01:38:43;9;7;
71858;PMS5003;59713;50.866;4.324;2024-02-04T01:39:43;9;7;
71858;PMS5003;59713;50.866;4.324;2024-02-04T01:40:43;7;7;
71858;PMS5003;59713;50.866;4.324;2024-02-04T01:40:43;7;7;
71858;PMS5003;59713;50.866;4.324;2024-02-04T01:41:43;7;7;
71858;PMS5003;59713;50.866;4.324;2024-02-04T01:42:43;7;7;
71858;PMS5003;59713;50.866;4.324;2024-02-04T01:43:43;7;7;
71858;PMS5003;59713;50.866;4.324;2024-02-04T01:44:43;7;7;
71858;PMS5003;59713;50.866;4.324;2024-02-04T01:45:43;7;7;
71858;PMS5003;59713;50.866;4.324;2024-02-04T01:46:44;6;6;
71858;PMS5003;59713;50.866;4.324;2024-02-04T01:47:43;6;6;
71858;PMS5003;59713;50.866;4.324;2024-02-04T01:48:44;6;6;
71858;PMS5003;59713;50.866;4.324;2024-02-04T01:49:43;9;8;
71858;PMS5003;59713;50.866;4.324;2024-02-04T01:49:43;9;8;
71858;PMS5003;59713;50.866;4.324;2024-02-04T01:50:43;9;8;
71858;PMS5003;59713;50.866;4.324;2024-02-04T01:51:43;9;8;
71858;PMS5003;59713;50.866;4.324;2024-02-04T01:52:43;9;9;
71858;PMS5003;59713;50.866;4.324;2024-02-04T01:53:44;9;9;
71858;PMS5003;59713;50.866;4.324;2024-02-04T01:54:43;9;9;
71858;PMS5003;59713;50.866;4.324;2024-02-04T01:55:43;6;6;
71858;PMS5003;59713;50.866;4.324;2024-02-04T01:56:45;6;6;
71858;PMS5003;59713;50.866;4.324;2024-02-04T01:57:43;6;6;
71858;PMS5003;59713;50.866;4.324;2024-02-04T01:58:43;6;6;
71858;PMS5003;59713;50.866;4.324;2024-02-04T01:59:43;6;6;
71858;PMS5003;59713;50.866;4.324;2024-02-04T01:59:43;6;6;
71858;PMS5003;59713;50.866;4.324;2024-02-04T02:00:43;6;6;
71858;PMS5003;59713;50.866;4.324;2024-02-04T02:01:43;11;8;
71858;PMS5003;59713;50.866;4.324;2024-02-04T02:02:46;11;8;
71858;PMS5003;59713;50.866;4.324;2024-02-04T02:03:43;11;8;
71858;PMS5003;59713;50.866;4.324;2024-02-04T02:04:43;8;6;
71858;PMS5003;59713;50.866;4.324;2024-02-04T02:05:45;8;6;
71858;PMS5003;59713;50.866;4.324;2024-02-04T02:06:45;8;6;
71858;PMS5003;59713;50.866;4.324;2024-02-04T02:07:43;7;7;
71858;PMS5003;59713;50.866;4.324;2024-02-04T02:08:43;7;7;
71858;PMS5003;59713;50.866;4.324;2024-02-04T02:08:43;7;7;
71858;PMS5003;59713;50.866;4.324;2024-02-04T02:09:43;7;7;
71858;PMS5003;59713;50.866;4.324;2024-02-04T02:10:43;8;7;
71858;PMS5003;59713;50.866;4.324;2024-02-04T02:11:44;8;7;
71858;PMS5003;59713;50.866;4.324;2024-02-04T02:12:46;8;7;
71858;PMS5003;59713;50.866;4.324;2024-02-04T02:13:44;12;8;
71858;PMS5003;59713;50.866;4.324;2024-02-04T02:14:44;12;8;
71858;PMS5003;59713;50.866;4.324;2024-02-04T02:15:45;12;8;
71858;PMS5003;59713;50.866;4.324;2024-02-04T02:16:44;8;8;
71858;PMS5003;59713;50.866;4.324;2024-02-04T02:17:44;8;8;
71858;PMS5003;59713;50.866;4.324;2024-02-04T02:17:55;8;8;
71858;PMS5003;59713;50.866;4.324;2024-02-04T02:18:44;8;8;
71858;PMS5003;59713;50.866;4.324;2024-02-04T02:19:46;7;7;
71858;PMS5003;59713;50.866;4.324;2024-02-04T02:20:47;7;7;
71858;PMS5003;59713;50.866;4.324;2024-02-04T02:21:44;7;7;
71858;PMS5003;59713;50.866;4.324;2024-02-04T02:22:45;10;10;
71858;PMS5003;59713;50.866;4.324;2024-02-04T02:23:47;10;10;
71858;PMS5003;59713;50.866;4.324;2024-02-04T02:24:43;10;10;
71858;PMS5003;59713;50.866;4.324;2024-02-04T02:25:43;10;8;
71858;PMS5003;59713;50.866;4.324;2024-02-04T02:26:43;10;8;
71858;PMS5003;59713;50.866;4.324;2024-02-04T02:26:43;10;8;
71858;PMS5003;59713;50.866;4.324;2024-02-04T02:27:46;10;8;
71858;PMS5003;59713;50.866;4.324;2024-02-04T02:28:43;9;7;
71858;PMS5003;59713;50.866;4.324;2024-02-04T02:29:43;9;7;
71858;PMS5003;59713;50.866;4.324;2024-02-04T02:30:44;9;7;
71858;PMS5003;59713;50.866;4.324;2024-02-04T02:31:43;10;8;
71858;PMS5003;59713;50.866;4.324;2024-02-04T02:32:44;10;8;
71858;PMS5003;59713;50.866;4.324;2024-02-04T02:33:43;10;8;
71858;PMS5003;59713;50.866;4.324;2024-02-04T02:34:43;10;8;
71858;PMS5003;59713;50.866;4.324;2024-02-04T02:35:43;10;8;
71858;PMS5003;59713;50.866;4.324;2024-02-04T02:35:44;10;8;
71858;PMS5003;59713;50.866;4.324;2024-02-04T02:36:44;10;8;
71858;PMS5003;59713;50.866;4.324;2024-02-04T02:37:45;14;10;
71858;PMS5003;59713;50.866;4.324;2024-02-04T02:38:54;14;10;
71858;PMS5003;59713;50.866;4.324;2024-02-04T02:39:45;14;10;
71858;PMS5003;59713;50.866;4.324;2024-02-04T02:40:45;12;10;
71858;PMS5003;59713;50.866;4.324;2024-02-04T02:41:44;12;10;
71858;PMS5003;59713;50.866;4.324;2024-02-04T02:42:44;12;10;
71858;PMS5003;59713;50.866;4.324;2024-02-04T02:43:43;12;10;
71858;PMS5003;59713;50.866;4.324;2024-02-04T02:44:43;12;10;
71858;PMS5003;59713;50.866;4.324;2024-02-04T02:44:43;12;10;
71858;PMS5003;59713;50.866;4.324;2024-02-04T02:45:44;12;10;
71858;PMS5003;59713;50.866;4.324;2024-02-04T02:46:44;11;8;
71858;PMS5003;59713;50.866;4.324;2024-02-04T02:47:43;11;8;
71858;PMS5003;59713;50.866;4.324;2024-02-04T02:48:43;11;8;
71858;PMS5003;59713;50.866;4.324;2024-02-04T02:49:44;13;8;
71858;PMS5003;59713;50.866;4.324;2024-02-04T02:50:43;13;8;
71858;PMS5003;59713;50.866;4.324;2024-02-04T02:51:43;13;8;
71858;PMS5003;59713;50.866;4.324;2024-02-04T02:52:44;9;9;
71858;PMS5003;59713;50.866;4.324;2024-02-04T02:53:43;9;9;
71858;PMS5003;59713;50.866;4.324;2024-02-04T02:53:43;9;9;
71858;PMS5003;59713;50.866;4.324;2024-02-04T02:54:43;9;9;
71858;PMS5003;59713;50.866;4.324;2024-02-04T02:55:45;10;9;
71858;PMS5003;59713;50.866;4.324;2024-02-04T02:56:43;10;9;
71858;PMS5003;59713;50.866;4.324;2024-02-04T02:57:45;10;9;
71858;PMS5003;59713;50.866;4.324;2024-02-04T02:58:43;11;10;
71858;PMS5003;59713;50.866;4.324;2024-02-04T02:59:43;11;10;
71858;PMS5003;59713;50.866;4.324;2024-02-04T03:00:43;11;10;
71858;PMS5003;59713;50.866;4.324;2024-02-04T03:01:43;11;9;
71858;PMS5003;59713;50.866;4.324;2024-02-04T03:02:43;11;9;
71858;PMS5003;59713;50.866;4.324;2024-02-04T03:03:43;11;9;
71858;PMS5003;59713;50.866;4.324;2024-02-04T03:03:44;11;9;
71858;PMS5003;59713;50.866;4.324;2024-02-04T03:04:46;12;10;
71858;PMS5003;59713;50.866;4.324;2024-02-04T03:05:44;12;10;
71858;PMS5003;59713;50.866;4.324;2024-02-04T03:06:44;12;10;
71858;PMS5003;59713;50.866;4.324;2024-02-04T03:07:44;12;10;
71858;PMS5003;59713;50.866;4.324;2024-02-04T03:08:44;12;10;
71858;PMS5003;59713;50.866;4.324;2024-02-04T03:09:43;12;10;
71858;PMS5003;59713;50.866;4.324;2024-02-04T03:10:44;8;7;
71858;PMS5003;59713;50.866;4.324;2024-02-04T03:11:43;8;7;
71858;PMS5003;59713;50.866;4.324;2024-02-04T03:12:43;8;7;
71858;PMS5003;59713;50.866;4.324;2024-02-04T03:13:44;10;10;
71858;PMS5003;59713;50.866;4.324;2024-02-04T03:13:44;10;10;
71858;PMS5003;59713;50.866;4.324;2024-02-04T03:14:48;10;10;
71858;PMS5003;59713;50.866;4.324;2024-02-04T03:15:44;10;10;
71858;PMS5003;59713;50.866;4.324;2024-02-04T03:16:44;15;12;
71858;PMS5003;59713;50.866;4.324;2024-02-04T03:17:44;15;12;
71858;PMS5003;59713;50.866;4.324;2024-02-04T03:18:45;15;12;
71858;PMS5003;59713;50.866;4.324;2024-02-04T03:19:44;11;10;
71858;PMS5003;59713;50.866;4.324;2024-02-04T03:20:44;11;10;
71858;PMS5003;59713;50.866;4.324;2024-02-04T03:21:44;11;10;
71858;PMS5003;59713;50.866;4.324;2024-02-04T03:22:45;10;9;
71858;PMS5003;59713;50.866;4.324;2024-02-04T03:22:45;10;9;
71858;PMS5003;59713;50.866;4.324;2024-02-04T03:23:44;10;9;
71858;PMS5003;59713;50.866;4.324;2024-02-04T03:24:44;10;9;
71858;PMS5003;59713;50.866;4.324;2024-02-04T03:25:44;10;9;
71858;PMS5003;59713;50.866;4.324;2024-02-04T03:26:44;10;9;
71858;PMS5003;59713;50.866;4.324;2024-02-04T03:27:44;10;9;
71858;PMS5003;59713;50.866;4.324;2024-02-04T03:28:44;17;16;
71858;PMS5003;59713;50.866;4.324;2024-02-04T03:29:44;17;16;
71858;PMS5003;59713;50.866;4.324;2024-02-04T03:30:44;17;16;
71858;PMS5003;59713;50.866;4.324;2024-02-04T03:31:44;10;8;
71858;PMS5003;59713;50.866;4.324;2024-02-04T03:31:44;10;8;
71858;PMS5003;59713;50.866;4.324;2024-02-04T03:32:44;10;8;
71858;PMS5003;59713;50.866;4.324;2024-02-04T03:33:44;10;8;
71858;PMS5003;59713;50.866;4.324;2024-02-04T03:34:44;10;7;
71858;PMS5003;59713;50.866;4.324;2024-02-04T03:35:44;10;7;
71858;PMS5003;59713;50.866;4.324;2024-02-04T03:36:44;10;7;
71858;PMS5003;59713;50.866;4.324;2024-02-04T03:37:44;11;9;
71858;PMS5003;59713;50.866;4.324;2024-02-04T03:38:44;11;9;
71858;PMS5003;59713;50.866;4.324;2024-02-04T03:39:44;11;9;
71858;PMS5003;59713;50.866;4.324;2024-02-04T03:40:44;12;8;
71858;PMS5003;59713;50.866;4.324;2024-02-04T03:41:44;12;8;
71858;PMS5003;59713;50.866;4.324;2024-02-04T03:41:44;12;8;
71858;PMS5003;59713;50.866;4.324;2024-02-04T03:42:44;12;8;
71858;PMS5003;59713;50.866;4.324;2024-02-04T03:43:44;10;9;
71858;PMS5003;59713;50.866;4.324;2024-02-04T03:44:44;10;9;
71858;PMS5003;59713;50.866;4.324;2024-02-04T03:45:44;10;9;
71858;PMS5003;59713;50.866;4.324;2024-02-04T03:46:46;7;7;
71858;PMS5003;59713;50.866;4.324;2024-02-04T03:47:44;7;7;
71858;PMS5003;59713;50.866;4.324;2024-02-04T03:48:44;7;7;
71858;PMS5003;59713;50.866;4.324;2024-02-04T03:49:44;8;8;
71858;PMS5003;59713;50.866;4.324;2024-02-04T03:50:44;8;8;
71858;PMS5003;59713;50.866;4.324;2024-02-04T03:50:44;8;8;
71858;PMS5003;59713;50.866;4.324;2024-02-04T03:51:44;8;8;
71858;PMS5003;59713;50.866;4.324;2024-02-04T03:52:44;11;10;
71858;PMS5003;59713;50.866;4.324;2024-02-04T03:53:44;11;10;
71858;PMS5003;59713;50.866;4.324;2024-02-04T03:54:44;11;10;
71858;PMS5003;59713;50.866;4.324;2024-02-04T03:55:44;11;8;
71858;PMS5003;59713;50.866;4.324;2024-02-04T03:56:44;11;8;
71858;PMS5003;59713;50.866;4.324;2024-02-04T03:57:44;11;8;
71858;PMS5003;59713;50.866;4.324;2024-02-04T03:58:44;10;7;
71858;PMS5003;59713;50.866;4.324;2024-02-04T03:59:44;10;7;
71858;PMS5003;59713;50.866;4.324;2024-02-04T03:59:44;10;7;
71858;PMS5003;59713;50.866;4.324;2024-02-04T04:00:44;10;7;
71858;PMS5003;59713;50.866;4.324;2024-02-04T04:01:46;12;8;
71858;PMS5003;59713;50.866;4.324;2024-02-04T04:02:44;12;8;
71858;PMS5003;59713;50.866;4.324;2024-02-04T04:03:44;12;8;
71858;PMS5003;59713;50.866;4.324;2024-02-04T04:04:44;9;7;
71858;PMS5003;59713;50.866;4.324;2024-02-04T04:05:44;9;7;
71858;PMS5003;59713;50.866;4.324;2024-02-04T04:06:44;9;7;
71858;PMS5003;59713;50.866;4.324;2024-02-04T04:07:44;10;9;
71858;PMS5003;59713;50.866;4.324;2024-02-04T04:08:44;10;9;
71858;PMS5003;59713;50.866;4.324;2024-02-04T04:08:44;10;9;
71858;PMS5003;59713;50.866;4.324;2024-02-04T04:09:44;10;9;
71858;PMS5003;59713;50.866;4.324;2024-02-04T04:10:44;11;7;
71858;PMS5003;59713;50.866;4.324;2024-02-04T04:11:44;11;7;
71858;PMS5003;59713;50.866;4.324;2024-02-04T04:12:44;11;7;
71858;PMS5003;59713;50.866;4.324;2024-02-04T04:13:44;8;8;
71858;PMS5003;59713;50.866;4.324;2024-02-04T04:14:44;8;8;
71858;PMS5003;59713;50.866;4.324;2024-02-04T04:15:44;8;8;
71858;PMS5003;59713;50.866;4.324;2024-02-04T04:16:44;9;9;
71858;PMS5003;59713;50.866;4.324;2024-02-04T04:17:44;9;9;
71858;PMS5003;59713;50.866;4.324;2024-02-04T04:17:44;9;9;
71858;PMS5003;59713;50.866;4.324;2024-02-04T04:18:44;9;9;
71858;PMS5003;59713;50.866;4.324;2024-02-04T04:19:44;10;8;
71858;PMS5003;59713;50.866;4.324;2024-02-04T04:20:44;10;8;
71858;PMS5003;59713;50.866;4.324;2024-02-04T04:21:44;10;8;
71858;PMS5003;59713;50.866;4.324;2024-02-04T04:22:44;6;6;
71858;PMS5003;59713;50.866;4.324;2024-02-04T04:23:44;6;6;
71858;PMS5003;59713;50.866;4.324;2024-02-04T04:24:44;6;6;
71858;PMS5003;59713;50.866;4.324;2024-02-04T04:25:44;9;7;
71858;PMS5003;59713;50.866;4.324;2024-02-04T04:26:44;9;7;
71858;PMS5003;59713;50.866;4.324;2024-02-04T04:26:44;9;7;
71858;PMS5003;59713;50.866;4.324;2024-02-04T04:27:44;9;7;
71858;PMS5003;59713;50.866;4.324;2024-02-04T04:28:44;8;6;
71858;PMS5003;59713;50.866;4.324;2024-02-04T04:29:44;8;6;
71858;PMS5003;59713;50.866;4.324;2024-02-04T04:30:44;8;6;
71858;PMS5003;59713;50.866;4.324;2024-02-04T04:31:44;7;6;
71858;PMS5003;59713;50.866;4.324;2024-02-04T04:32:44;7;6;
71858;PMS5003;59713;50.866;4.324;2024-02-04T04:33:44;7;6;
71858;PMS5003;59713;50.866;4.324;2024-02-04T04:34:44;4;4;
71858;PMS5003;59713;50.866;4.324;2024-02-04T04:35:44;4;4;
71858;PMS5003;59713;50.866;4.324;2024-02-04T04:35:44;4;4;
71858;PMS5003;59713;50.866;4.324;2024-02-04T04:36:44;4;4;
71858;PMS5003;59713;50.866;4.324;2024-02-04T04:37:44;5;5;
71858;PMS5003;59713;50.866;4.324;2024-02-04T04:38:44;5;5;
71858;PMS5003;59713;50.866;4.324;2024-02-04T04:39:44;5;5;
71858;PMS5003;59713;50.866;4.324;2024-02-04T04:40:44;7;5;
71858;PMS5003;59713;50.866;4.324;2024-02-04T04:41:44;7;5;
71858;PMS5003;59713;50.866;4.324;2024-02-04T04:42:44;7;5;
71858;PMS5003;59713;50.866;4.324;2024-02-04T04:43:44;7;6;
71858;PMS5003;59713;50.866;4.324;2024-02-04T04:44:44;7;6;
71858;PMS5003;59713;50.866;4.324;2024-02-04T04:45:44;7;6;
71858;PMS5003;59713;50.866;4.324;2024-02-04T04:45:44;7;6;
71858;PMS5003;59713;50.866;4.324;2024-02-04T04:46:44;9;8;
71858;PMS5003;59713;50.866;4.324;2024-02-04T04:47:44;9;8;
71858;PMS5003;59713;50.866;4.324;2024-02-04T04:48:44;9;8;
71858;PMS5003;59713;50.866;4.324;2024-02-04T04:49:44;8;6;
71858;PMS5003;59713;50.866;4.324;2024-02-04T04:50:44;8;6;
71858;PMS5003;59713;50.866;4.324;2024-02-04T04:51:44;8;6;
71858;PMS5003;59713;50.866;4.324;2024-02-04T04:52:44;6;6;
71858;PMS5003;59713;50.866;4.324;2024-02-04T04:53:44;6;6;
71858;PMS5003;59713;50.866;4.324;2024-02-04T04:54:44;6;6;
71858;PMS5003;59713;50.866;4.324;2024-02-04T04:54:44;6;6;
71858;PMS5003;59713;50.866;4.324;2024-02-04T04:55:44;8;7;
71858;PMS5003;59713;50.866;4.324;2024-02-04T04:56:44;8;7;
71858;PMS5003;59713;50.866;4.324;2024-02-04T04:57:44;8;7;
71858;PMS5003;59713;50.866;4.324;2024-02-04T04:58:44;6;6;
71858;PMS5003;59713;50.866;4.324;2024-02-04T04:59:44;6;6;
71858;PMS5003;59713;50.866;4.324;2024-02-04T05:00:44;6;6;
71858;PMS5003;59713;50.866;4.324;2024-02-04T05:01:45;8;5;
71858;PMS5003;59713;50.866;4.324;2024-02-04T05:02:44;8;5;
71858;PMS5003;59713;50.866;4.324;2024-02-04T05:03:44;8;5;
71858;PMS5003;59713;50.866;4.324;2024-02-04T05:04:44;6;6;
71858;PMS5003;59713;50.866;4.324;2024-02-04T05:04:44;6;6;
71858;PMS5003;59713;50.866;4.324;2024-02-04T05:05:44;6;6;
71858;PMS5003;59713;50.866;4.324;2024-02-04T05:06:44;6;6;
71858;PMS5003;59713;50.866;4.324;2024-02-04T05:07:44;11;7;
71858;PMS5003;59713;50.866;4.324;2024-02-04T05:08:44;11;7;
71858;PMS5003;59713;50.866;4.324;2024-02-04T05:09:44;11;7;
71858;PMS5003;59713;50.866;4.324;2024-02-04T05:10:44;9;8;
71858;PMS5003;59713;50.866;4.324;2024-02-04T05:11:44;9;8;
71858;PMS5003;59713;50.866;4.324;2024-02-04T05:12:44;9;8;
71858;PMS5003;59713;50.866;4.324;2024-02-04T05:13:44;9;5;
71858;PMS5003;59713;50.866;4.324;2024-02-04T05:13:44;9;5;
71858;PMS5003;59713;50.866;4.324;2024-02-04T05:14:44;9;5;
71858;PMS5003;59713;50.866;4.324;2024-02-04T05:15:45;9;5;
71858;PMS5003;59713;50.866;4.324;2024-02-04T05:16:44;9;7;
71858;PMS5003;59713;50.866;4.324;2024-02-04T05:17:44;9;7;
71858;PMS5003;59713;50.866;4.324;2024-02-04T05:18:44;9;7;
71858;PMS5003;59713;50.866;4.324;2024-02-04T05:19:44;9;6;
71858;PMS5003;59713;50.866;4.324;2024-02-04T05:20:44;9;6;
71858;PMS5003;59713;50.866;4.324;2024-02-04T05:21:44;9;6;
71858;PMS5003;59713;50.866;4.324;2024-02-04T05:22:45;7;6;
71858;PMS5003;59713;50.866;4.324;2024-02-04T05:22:45;7;6;
71858;PMS5003;59713;50.866;4.324;2024-02-04T05:23:44;7;6;
71858;PMS5003;59713;50.866;4.324;2024-02-04T05:24:44;7;6;
71858;PMS5003;59713;50.866;4.324;2024-02-04T05:25:44;15;8;
71858;PMS5003;59713;50.866;4.324;2024-02-04T05:26:44;15;8;
71858;PMS5003;59713;50.866;4.324;2024-02-04T05:27:44;15;8;
71858;PMS5003;59713;50.866;4.324;2024-02-04T05:28:44;7;6;
71858;PMS5003;59713;50.866;4.324;2024-02-04T05:29:44;7;6;
71858;PMS5003;59713;50.866;4.324;2024-02-04T05:30:44;7;6;
71858;PMS5003;59713;50.866;4.324;2024-02-04T05:31:44;8;7;
71858;PMS5003;59713;50.866;4.324;2024-02-04T05:32:44;8;7;
71858;PMS5003;59713;50.866;4.324;2024-02-04T05:32:44;8;7;
71858;PMS5003;59713;50.866;4.324;2024-02-04T05:33:44;8;7;
71858;PMS5003;59713;50.866;4.324;2024-02-04T05:34:44;6;6;
71858;PMS5003;59713;50.866;4.324;2024-02-04T05:35:44;6;6;
71858;PMS5003;59713;50.866;4.324;2024-02-04T05:36:44;6;6;
71858;PMS5003;59713;50.866;4.324;2024-02-04T05:37:45;6;6;
71858;PMS5003;59713;50.866;4.324;2024-02-04T05:38:46;6;6;
71858;PMS5003;59713;50.866;4.324;2024-02-04T05:39:45;6;6;
71858;PMS5003;59713;50.866;4.324;2024-02-04T05:40:44;7;7;
71858;PMS5003;59713;50.866;4.324;2024-02-04T05:41:44;7;7;
71858;PMS5003;59713;50.866;4.324;2024-02-04T05:41:44;7;7;
71858;PMS5003;59713;50.866;4.324;2024-02-04T05:42:44;7;7;
71858;PMS5003;59713;50.866;4.324;2024-02-04T05:43:44;9;9;
71858;PMS5003;59713;50.866;4.324;2024-02-04T05:44:44;9;9;
71858;PMS5003;59713;50.866;4.324;2024-02-04T05:45:44;9;9;
71858;PMS5003;59713;50.866;4.324;2024-02-04T05:46:44;9;9;
71858;PMS5003;59713;50.866;4.324;2024-02-04T05:47:44;9;9;
71858;PMS5003;59713;50.866;4.324;2024-02-04T05:48:44;9;9;
71858;PMS5003;59713;50.866;4.324;2024-02-04T05:49:44;14;9;
71858;PMS5003;59713;50.866;4.324;2024-02-04T05:50:44;14;9;
71858;PMS5003;59713;50.866;4.324;2024-02-04T05:50:44;14;9;
71858;PMS5003;59713;50.866;4.324;2024-02-04T05:51:44;14;9;
71858;PMS5003;59713;50.866;4.324;2024-02-04T05:52:44;9;9;
71858;PMS5003;59713;50.866;4.324;2024-02-04T05:53:44;9;9;
71858;PMS5003;59713;50.866;4.324;2024-02-04T05:54:44;9;9;
71858;PMS5003;59713;50.866;4.324;2024-02-04T05:55:45;10;10;
71858;PMS5003;59713;50.866;4.324;2024-02-04T05:56:44;10;10;
71858;PMS5003;59713;50.866;4.324;2024-02-04T05:57:44;10;10;
71858;PMS5003;59713;50.866;4.324;2024-02-04T05:58:44;8;7;
71858;PMS5003;59713;50.866;4.324;2024-02-04T05:59:44;8;7;
71858;PMS5003;59713;50.866;4.324;2024-02-04T06:00:44;8;7;
71858;PMS5003;59713;50.866;4.324;2024-02-04T06:00:44;8;7;
71858;PMS5003;59713;50.866;4.324;2024-02-04T06:01:44;15;10;
71858;PMS5003;59713;50.866;4.324;2024-02-04T06:02:44;15;10;
71858;PMS5003;59713;50.866;4.324;2024-02-04T06:03:44;15;10;
71858;PMS5003;59713;50.866;4.324;2024-02-04T06:04:44;9;8;
71858;PMS5003;59713;50.866;4.324;2024-02-04T06:05:44;9;8;
71858;PMS5003;59713;50.866;4.324;2024-02-04T06:06:44;9;8;
71858;PMS5003;59713;50.866;4.324;2024-02-04T06:07:44;7;6;
71858;PMS5003;59713;50.866;4.324;2024-02-04T06:08:44;7;6;
71858;PMS5003;59713;50.866;4.324;2024-02-04T06:09:44;7;6;